sensor_id;sensor_type;location;lat;lon;timestamp;P1;durP1;ratioP1;P2;durP2;ratioP2
46889;SDS011;32625;51.080;16.970;2023-05-07T00:02:19;8.60;;;6.07;;
46889;SDS011;32625;51.080;16.970;2023-05-07T00:04:46;11.98;;;6.70;;
46889;SDS011;32625;51.080;16.970;2023-05-07T00:07:13;11.93;;;6.03;;
46889;SDS011;32625;51.080;16.970;2023-05-07T00:09:41;15.68;;;6.18;;
46889;SDS011;32625;51.080;16.970;2023-05-07T00:12:09;11.15;;;5.88;;
46889;SDS011;32625;51.080;16.970;2023-05-07T00:14:36;7.85;;;5.90;;
46889;SDS011;32625;51.080;16.970;2023-05-07T00:17:06;12.65;;;7.20;;
46889;SDS011;32625;51.080;16.970;2023-05-07T00:19:33;8.02;;;6.18;;
46889;SDS011;32625;51.080;16.970;2023-05-07T00:22:00;9.05;;;6.05;;
46889;SDS011;32625;51.080;16.970;2023-05-07T00:24:28;6.05;;;5.28;;
46889;SDS011;32625;51.080;16.970;2023-05-07T00:26:55;10.25;;;5.72;;
46889;SDS011;32625;51.080;16.970;2023-05-07T00:29:25;6.82;;;5.70;;
46889;SDS011;32625;51.080;16.970;2023-05-07T00:31:52;7.82;;;5.65;;
46889;SDS011;32625;51.080;16.970;2023-05-07T00:34:21;6.50;;;5.75;;
46889;SDS011;32625;51.080;16.970;2023-05-07T00:36:48;6.72;;;5.70;;
46889;SDS011;32625;51.080;16.970;2023-05-07T00:39:16;9.70;;;5.60;;
46889;SDS011;32625;51.080;16.970;2023-05-07T00:41:43;7.20;;;5.13;;
46889;SDS011;32625;51.080;16.970;2023-05-07T00:44:10;8.18;;;5.28;;
46889;SDS011;32625;51.080;16.970;2023-05-07T00:46:37;7.55;;;5.32;;
46889;SDS011;32625;51.080;16.970;2023-05-07T00:49:05;7.65;;;5.13;;
46889;SDS011;32625;51.080;16.970;2023-05-07T00:51:32;6.85;;;5.28;;
46889;SDS011;32625;51.080;16.970;2023-05-07T00:54:01;7.18;;;6.15;;
46889;SDS011;32625;51.080;16.970;2023-05-07T00:56:29;19.30;;;6.07;;
46889;SDS011;32625;51.080;16.970;2023-05-07T00:58:58;6.30;;;5.35;;
46889;SDS011;32625;51.080;16.970;2023-05-07T01:01:25;9.32;;;5.68;;
46889;SDS011;32625;51.080;16.970;2023-05-07T01:03:53;6.40;;;5.80;;
46889;SDS011;32625;51.080;16.970;2023-05-07T01:06:21;7.18;;;6.32;;
46889;SDS011;32625;51.080;16.970;2023-05-07T01:08:50;6.55;;;5.38;;
46889;SDS011;32625;51.080;16.970;2023-05-07T01:11:19;9.45;;;5.85;;
46889;SDS011;32625;51.080;16.970;2023-05-07T01:13:48;7.75;;;4.50;;
46889;SDS011;32625;51.080;16.970;2023-05-07T01:16:17;7.00;;;5.35;;
46889;SDS011;32625;51.080;16.970;2023-05-07T01:18:44;9.40;;;5.28;;
46889;SDS011;32625;51.080;16.970;2023-05-07T01:21:13;7.32;;;6.10;;
46889;SDS011;32625;51.080;16.970;2023-05-07T01:23:44;9.65;;;6.55;;
46889;SDS011;32625;51.080;16.970;2023-05-07T01:26:12;7.50;;;5.68;;
46889;SDS011;32625;51.080;16.970;2023-05-07T01:28:41;7.35;;;5.85;;
46889;SDS011;32625;51.080;16.970;2023-05-07T01:31:09;7.22;;;6.03;;
46889;SDS011;32625;51.080;16.970;2023-05-07T01:33:36;6.45;;;5.65;;
46889;SDS011;32625;51.080;16.970;2023-05-07T01:36:06;8.57;;;5.72;;
46889;SDS011;32625;51.080;16.970;2023-05-07T01:38:36;8.32;;;6.13;;
46889;SDS011;32625;51.080;16.970;2023-05-07T01:41:04;7.75;;;6.57;;
46889;SDS011;32625;51.080;16.970;2023-05-07T01:43:33;7.80;;;6.30;;
46889;SDS011;32625;51.080;16.970;2023-05-07T01:46:00;9.73;;;7.22;;
46889;SDS011;32625;51.080;16.970;2023-05-07T01:48:29;9.20;;;6.30;;
46889;SDS011;32625;51.080;16.970;2023-05-07T01:50:57;11.95;;;6.93;;
46889;SDS011;32625;51.080;16.970;2023-05-07T01:53:26;6.57;;;5.97;;
46889;SDS011;32625;51.080;16.970;2023-05-07T01:55:54;8.27;;;5.93;;
46889;SDS011;32625;51.080;16.970;2023-05-07T01:58:23;7.40;;;6.30;;
46889;SDS011;32625;51.080;16.970;2023-05-07T02:00:50;7.90;;;5.80;;
46889;SDS011;32625;51.080;16.970;2023-05-07T02:03:17;9.85;;;5.45;;
46889;SDS011;32625;51.080;16.970;2023-05-07T02:05:55;9.85;;;6.95;;
46889;SDS011;32625;51.080;16.970;2023-05-07T02:08:32;7.18;;;6.47;;
46889;SDS011;32625;51.080;16.970;2023-05-07T02:11:00;7.80;;;6.35;;
46889;SDS011;32625;51.080;16.970;2023-05-07T02:13:29;9.25;;;6.07;;
46889;SDS011;32625;51.080;16.970;2023-05-07T02:15:58;9.20;;;6.55;;
46889;SDS011;32625;51.080;16.970;2023-05-07T02:18:26;9.75;;;6.57;;
46889;SDS011;32625;51.080;16.970;2023-05-07T02:20:54;9.95;;;6.82;;
46889;SDS011;32625;51.080;16.970;2023-05-07T02:23:21;9.38;;;5.90;;
46889;SDS011;32625;51.080;16.970;2023-05-07T02:25:48;7.30;;;6.55;;
46889;SDS011;32625;51.080;16.970;2023-05-07T02:28:16;10.07;;;6.47;;
46889;SDS011;32625;51.080;16.970;2023-05-07T02:30:57;9.07;;;6.57;;
46889;SDS011;32625;51.080;16.970;2023-05-07T02:33:28;7.88;;;6.07;;
46889;SDS011;32625;51.080;16.970;2023-05-07T02:35:57;8.38;;;5.88;;
46889;SDS011;32625;51.080;16.970;2023-05-07T02:38:32;12.10;;;6.40;;
46889;SDS011;32625;51.080;16.970;2023-05-07T02:41:00;8.23;;;5.95;;
46889;SDS011;32625;51.080;16.970;2023-05-07T02:43:27;7.55;;;5.72;;
46889;SDS011;32625;51.080;16.970;2023-05-07T02:48:56;10.18;;;6.15;;
46889;SDS011;32625;51.080;16.970;2023-05-07T02:51:23;8.80;;;5.85;;
46889;SDS011;32625;51.080;16.970;2023-05-07T02:53:55;6.40;;;5.50;;
46889;SDS011;32625;51.080;16.970;2023-05-07T02:56:25;8.77;;;6.10;;
46889;SDS011;32625;51.080;16.970;2023-05-07T02:58:52;8.85;;;6.00;;
46889;SDS011;32625;51.080;16.970;2023-05-07T03:01:22;7.07;;;5.68;;
46889;SDS011;32625;51.080;16.970;2023-05-07T03:03:57;10.77;;;6.47;;
46889;SDS011;32625;51.080;16.970;2023-05-07T03:06:24;9.25;;;6.78;;
46889;SDS011;32625;51.080;16.970;2023-05-07T03:08:52;8.18;;;6.30;;
46889;SDS011;32625;51.080;16.970;2023-05-07T03:11:19;10.52;;;6.18;;
46889;SDS011;32625;51.080;16.970;2023-05-07T03:13:47;8.90;;;5.85;;
46889;SDS011;32625;51.080;16.970;2023-05-07T03:16:17;10.05;;;6.18;;
46889;SDS011;32625;51.080;16.970;2023-05-07T03:18:45;9.68;;;6.13;;
46889;SDS011;32625;51.080;16.970;2023-05-07T03:21:12;8.60;;;6.43;;
46889;SDS011;32625;51.080;16.970;2023-05-07T03:23:39;9.80;;;6.40;;
46889;SDS011;32625;51.080;16.970;2023-05-07T03:26:07;9.98;;;5.80;;
46889;SDS011;32625;51.080;16.970;2023-05-07T03:28:36;12.38;;;7.03;;
46889;SDS011;32625;51.080;16.970;2023-05-07T03:31:07;9.50;;;6.13;;
46889;SDS011;32625;51.080;16.970;2023-05-07T03:33:34;8.60;;;6.15;;
46889;SDS011;32625;51.080;16.970;2023-05-07T03:36:02;11.52;;;6.78;;
46889;SDS011;32625;51.080;16.970;2023-05-07T03:38:29;6.57;;;5.32;;
46889;SDS011;32625;51.080;16.970;2023-05-07T03:40:57;8.77;;;5.85;;
46889;SDS011;32625;51.080;16.970;2023-05-07T03:43:25;12.32;;;5.75;;
46889;SDS011;32625;51.080;16.970;2023-05-07T03:45:59;7.63;;;5.95;;
46889;SDS011;32625;51.080;16.970;2023-05-07T03:48:28;10.75;;;6.53;;
46889;SDS011;32625;51.080;16.970;2023-05-07T03:50:57;10.15;;;6.60;;
46889;SDS011;32625;51.080;16.970;2023-05-07T03:53:29;8.90;;;6.30;;
46889;SDS011;32625;51.080;16.970;2023-05-07T03:55:56;8.82;;;6.63;;
46889;SDS011;32625;51.080;16.970;2023-05-07T03:58:24;8.60;;;5.72;;
46889;SDS011;32625;51.080;16.970;2023-05-07T04:00:54;5.85;;;4.88;;
46889;SDS011;32625;51.080;16.970;2023-05-07T04:03:26;8.85;;;6.10;;
46889;SDS011;32625;51.080;16.970;2023-05-07T04:05:56;6.50;;;4.32;;
46889;SDS011;32625;51.080;16.970;2023-05-07T04:08:23;5.50;;;4.28;;
46889;SDS011;32625;51.080;16.970;2023-05-07T04:10:54;6.55;;;4.30;;
46889;SDS011;32625;51.080;16.970;2023-05-07T04:13:24;7.03;;;4.63;;
46889;SDS011;32625;51.080;16.970;2023-05-07T04:15:52;7.63;;;4.95;;
46889;SDS011;32625;51.080;16.970;2023-05-07T04:18:20;6.40;;;4.47;;
46889;SDS011;32625;51.080;16.970;2023-05-07T04:20:48;10.82;;;4.60;;
46889;SDS011;32625;51.080;16.970;2023-05-07T04:23:16;6.20;;;4.88;;
46889;SDS011;32625;51.080;16.970;2023-05-07T04:25:44;5.82;;;4.50;;
46889;SDS011;32625;51.080;16.970;2023-05-07T04:28:30;7.80;;;5.07;;
46889;SDS011;32625;51.080;16.970;2023-05-07T04:30:57;6.78;;;4.65;;
46889;SDS011;32625;51.080;16.970;2023-05-07T04:33:25;6.63;;;4.47;;
46889;SDS011;32625;51.080;16.970;2023-05-07T04:35:55;5.85;;;4.28;;
46889;SDS011;32625;51.080;16.970;2023-05-07T04:38:22;8.48;;;4.35;;
46889;SDS011;32625;51.080;16.970;2023-05-07T04:40:52;5.75;;;4.70;;
46889;SDS011;32625;51.080;16.970;2023-05-07T04:43:22;5.97;;;4.53;;
46889;SDS011;32625;51.080;16.970;2023-05-07T04:45:51;10.52;;;4.40;;
46889;SDS011;32625;51.080;16.970;2023-05-07T04:48:21;5.57;;;4.75;;
46889;SDS011;32625;51.080;16.970;2023-05-07T04:50:50;7.88;;;4.63;;
46889;SDS011;32625;51.080;16.970;2023-05-07T04:53:18;6.93;;;4.50;;
46889;SDS011;32625;51.080;16.970;2023-05-07T04:55:47;5.82;;;4.85;;
46889;SDS011;32625;51.080;16.970;2023-05-07T04:58:15;8.18;;;5.35;;
46889;SDS011;32625;51.080;16.970;2023-05-07T05:00:45;9.63;;;5.15;;
46889;SDS011;32625;51.080;16.970;2023-05-07T05:03:13;6.20;;;4.60;;
46889;SDS011;32625;51.080;16.970;2023-05-07T05:05:40;5.75;;;4.28;;
46889;SDS011;32625;51.080;16.970;2023-05-07T05:08:08;7.30;;;4.25;;
46889;SDS011;32625;51.080;16.970;2023-05-07T05:10:39;4.75;;;3.88;;
46889;SDS011;32625;51.080;16.970;2023-05-07T05:13:09;5.35;;;4.03;;
46889;SDS011;32625;51.080;16.970;2023-05-07T05:15:40;4.50;;;3.88;;
46889;SDS011;32625;51.080;16.970;2023-05-07T05:18:08;4.95;;;3.65;;
46889;SDS011;32625;51.080;16.970;2023-05-07T05:20:35;3.88;;;3.40;;
46889;SDS011;32625;51.080;16.970;2023-05-07T05:23:02;5.28;;;3.53;;
46889;SDS011;32625;51.080;16.970;2023-05-07T05:25:30;5.07;;;2.97;;
46889;SDS011;32625;51.080;16.970;2023-05-07T05:27:58;5.03;;;3.50;;
46889;SDS011;32625;51.080;16.970;2023-05-07T05:30:25;3.83;;;2.60;;
46889;SDS011;32625;51.080;16.970;2023-05-07T05:32:52;5.07;;;3.50;;
46889;SDS011;32625;51.080;16.970;2023-05-07T05:35:20;3.85;;;3.15;;
46889;SDS011;32625;51.080;16.970;2023-05-07T05:37:48;4.00;;;3.20;;
46889;SDS011;32625;51.080;16.970;2023-05-07T05:40:17;7.35;;;3.72;;
46889;SDS011;32625;51.080;16.970;2023-05-07T05:42:44;6.93;;;4.10;;
46889;SDS011;32625;51.080;16.970;2023-05-07T05:45:13;5.35;;;4.05;;
46889;SDS011;32625;51.080;16.970;2023-05-07T05:47:41;6.97;;;3.95;;
46889;SDS011;32625;51.080;16.970;2023-05-07T05:50:08;5.80;;;3.88;;
46889;SDS011;32625;51.080;16.970;2023-05-07T05:52:36;5.45;;;3.50;;
46889;SDS011;32625;51.080;16.970;2023-05-07T05:55:04;4.47;;;3.95;;
46889;SDS011;32625;51.080;16.970;2023-05-07T05:57:33;7.50;;;4.28;;
46889;SDS011;32625;51.080;16.970;2023-05-07T06:00:01;5.10;;;4.15;;
46889;SDS011;32625;51.080;16.970;2023-05-07T06:02:31;4.25;;;3.85;;
46889;SDS011;32625;51.080;16.970;2023-05-07T06:04:59;4.70;;;3.97;;
46889;SDS011;32625;51.080;16.970;2023-05-07T06:07:26;8.05;;;4.45;;
46889;SDS011;32625;51.080;16.970;2023-05-07T06:09:54;6.90;;;4.03;;
46889;SDS011;32625;51.080;16.970;2023-05-07T06:12:22;5.40;;;4.05;;
46889;SDS011;32625;51.080;16.970;2023-05-07T06:14:49;8.48;;;3.95;;
46889;SDS011;32625;51.080;16.970;2023-05-07T06:17:16;6.85;;;4.10;;
46889;SDS011;32625;51.080;16.970;2023-05-07T06:19:48;5.55;;;3.80;;
46889;SDS011;32625;51.080;16.970;2023-05-07T06:22:17;4.53;;;4.05;;
46889;SDS011;32625;51.080;16.970;2023-05-07T06:24:45;4.70;;;3.85;;
46889;SDS011;32625;51.080;16.970;2023-05-07T06:27:12;6.07;;;3.80;;
46889;SDS011;32625;51.080;16.970;2023-05-07T06:29:40;5.20;;;3.75;;
46889;SDS011;32625;51.080;16.970;2023-05-07T06:32:13;6.25;;;3.97;;
46889;SDS011;32625;51.080;16.970;2023-05-07T06:34:42;5.32;;;4.07;;
46889;SDS011;32625;51.080;16.970;2023-05-07T06:37:10;6.75;;;3.83;;
46889;SDS011;32625;51.080;16.970;2023-05-07T06:39:57;5.78;;;4.00;;
46889;SDS011;32625;51.080;16.970;2023-05-07T06:42:35;4.35;;;3.80;;
46889;SDS011;32625;51.080;16.970;2023-05-07T06:45:23;3.80;;;3.30;;
46889;SDS011;32625;51.080;16.970;2023-05-07T06:47:53;4.90;;;3.45;;
46889;SDS011;32625;51.080;16.970;2023-05-07T06:50:22;5.32;;;3.55;;
46889;SDS011;32625;51.080;16.970;2023-05-07T06:52:51;3.67;;;3.03;;
46889;SDS011;32625;51.080;16.970;2023-05-07T06:55:18;4.50;;;2.95;;
46889;SDS011;32625;51.080;16.970;2023-05-07T06:57:46;4.70;;;3.10;;
46889;SDS011;32625;51.080;16.970;2023-05-07T07:00:14;3.83;;;3.20;;
46889;SDS011;32625;51.080;16.970;2023-05-07T07:02:47;3.53;;;3.23;;
46889;SDS011;32625;51.080;16.970;2023-05-07T07:05:17;5.05;;;3.65;;
46889;SDS011;32625;51.080;16.970;2023-05-07T07:07:44;5.60;;;3.80;;
46889;SDS011;32625;51.080;16.970;2023-05-07T07:10:20;4.82;;;3.95;;
46889;SDS011;32625;51.080;16.970;2023-05-07T07:12:49;4.10;;;3.40;;
46889;SDS011;32625;51.080;16.970;2023-05-07T07:15:17;4.53;;;3.65;;
46889;SDS011;32625;51.080;16.970;2023-05-07T07:17:44;6.22;;;3.92;;
46889;SDS011;32625;51.080;16.970;2023-05-07T07:20:11;4.45;;;3.30;;
46889;SDS011;32625;51.080;16.970;2023-05-07T07:22:40;5.78;;;3.30;;
46889;SDS011;32625;51.080;16.970;2023-05-07T07:25:07;3.60;;;3.28;;
46889;SDS011;32625;51.080;16.970;2023-05-07T07:27:37;5.13;;;3.65;;
46889;SDS011;32625;51.080;16.970;2023-05-07T07:30:07;7.13;;;3.33;;
46889;SDS011;32625;51.080;16.970;2023-05-07T07:32:38;5.60;;;3.20;;
46889;SDS011;32625;51.080;16.970;2023-05-07T07:35:05;3.42;;;3.13;;
46889;SDS011;32625;51.080;16.970;2023-05-07T07:37:34;4.93;;;3.03;;
46889;SDS011;32625;51.080;16.970;2023-05-07T07:40:01;4.97;;;3.10;;
46889;SDS011;32625;51.080;16.970;2023-05-07T07:42:32;3.22;;;2.67;;
46889;SDS011;32625;51.080;16.970;2023-05-07T07:45:00;4.38;;;3.28;;
46889;SDS011;32625;51.080;16.970;2023-05-07T07:47:31;3.05;;;2.72;;
46889;SDS011;32625;51.080;16.970;2023-05-07T07:49:58;4.35;;;2.50;;
46889;SDS011;32625;51.080;16.970;2023-05-07T07:52:28;3.40;;;2.92;;
46889;SDS011;32625;51.080;16.970;2023-05-07T07:54:55;4.75;;;2.53;;
46889;SDS011;32625;51.080;16.970;2023-05-07T07:57:22;3.42;;;2.30;;
46889;SDS011;32625;51.080;16.970;2023-05-07T07:59:50;3.17;;;2.50;;
46889;SDS011;32625;51.080;16.970;2023-05-07T08:02:18;3.63;;;2.67;;
46889;SDS011;32625;51.080;16.970;2023-05-07T08:04:47;3.40;;;2.72;;
46889;SDS011;32625;51.080;16.970;2023-05-07T08:07:14;2.90;;;2.60;;
46889;SDS011;32625;51.080;16.970;2023-05-07T08:09:46;2.50;;;2.30;;
46889;SDS011;32625;51.080;16.970;2023-05-07T08:12:16;3.28;;;2.97;;
46889;SDS011;32625;51.080;16.970;2023-05-07T08:14:43;3.83;;;2.97;;
46889;SDS011;32625;51.080;16.970;2023-05-07T08:17:11;4.03;;;3.30;;
46889;SDS011;32625;51.080;16.970;2023-05-07T08:19:38;4.10;;;3.70;;
46889;SDS011;32625;51.080;16.970;2023-05-07T08:22:09;5.95;;;3.90;;
46889;SDS011;32625;51.080;16.970;2023-05-07T08:24:38;3.92;;;3.53;;
46889;SDS011;32625;51.080;16.970;2023-05-07T08:27:05;6.82;;;4.00;;
46889;SDS011;32625;51.080;16.970;2023-05-07T08:29:32;4.93;;;3.72;;
46889;SDS011;32625;51.080;16.970;2023-05-07T08:32:00;4.32;;;3.85;;
46889;SDS011;32625;51.080;16.970;2023-05-07T08:34:27;5.47;;;4.45;;
46889;SDS011;32625;51.080;16.970;2023-05-07T08:36:56;5.30;;;4.05;;
46889;SDS011;32625;51.080;16.970;2023-05-07T08:39:24;4.90;;;4.45;;
46889;SDS011;32625;51.080;16.970;2023-05-07T08:41:54;6.82;;;4.63;;
46889;SDS011;32625;51.080;16.970;2023-05-07T08:44:26;5.05;;;4.30;;
46889;SDS011;32625;51.080;16.970;2023-05-07T08:46:56;7.60;;;4.35;;
46889;SDS011;32625;51.080;16.970;2023-05-07T08:49:25;7.45;;;4.85;;
46889;SDS011;32625;51.080;16.970;2023-05-07T08:51:53;7.28;;;4.50;;
46889;SDS011;32625;51.080;16.970;2023-05-07T08:54:24;6.03;;;5.30;;
46889;SDS011;32625;51.080;16.970;2023-05-07T08:56:53;6.00;;;4.80;;
46889;SDS011;32625;51.080;16.970;2023-05-07T08:59:20;5.07;;;4.43;;
46889;SDS011;32625;51.080;16.970;2023-05-07T09:01:47;5.10;;;4.50;;
46889;SDS011;32625;51.080;16.970;2023-05-07T09:04:15;6.85;;;4.80;;
46889;SDS011;32625;51.080;16.970;2023-05-07T09:06:43;5.95;;;4.68;;
46889;SDS011;32625;51.080;16.970;2023-05-07T09:09:16;5.15;;;4.07;;
46889;SDS011;32625;51.080;16.970;2023-05-07T09:11:47;6.03;;;5.20;;
46889;SDS011;32625;51.080;16.970;2023-05-07T09:14:18;7.00;;;4.82;;
46889;SDS011;32625;51.080;16.970;2023-05-07T09:16:49;8.10;;;5.72;;
46889;SDS011;32625;51.080;16.970;2023-05-07T09:19:22;9.02;;;5.95;;
46889;SDS011;32625;51.080;16.970;2023-05-07T09:21:58;6.95;;;5.68;;
46889;SDS011;32625;51.080;16.970;2023-05-07T09:24:36;8.40;;;5.75;;
46889;SDS011;32625;51.080;16.970;2023-05-07T09:27:07;7.85;;;5.85;;
46889;SDS011;32625;51.080;16.970;2023-05-07T09:29:36;7.70;;;5.50;;
46889;SDS011;32625;51.080;16.970;2023-05-07T09:32:05;5.60;;;4.43;;
46889;SDS011;32625;51.080;16.970;2023-05-07T09:34:34;5.65;;;4.40;;
46889;SDS011;32625;51.080;16.970;2023-05-07T09:37:02;6.85;;;4.80;;
46889;SDS011;32625;51.080;16.970;2023-05-07T09:39:47;7.05;;;4.45;;
46889;SDS011;32625;51.080;16.970;2023-05-07T09:42:23;7.40;;;5.07;;
46889;SDS011;32625;51.080;16.970;2023-05-07T09:44:52;7.85;;;4.90;;
46889;SDS011;32625;51.080;16.970;2023-05-07T09:47:23;6.22;;;4.78;;
46889;SDS011;32625;51.080;16.970;2023-05-07T09:49:56;7.32;;;4.97;;
46889;SDS011;32625;51.080;16.970;2023-05-07T09:52:26;4.97;;;4.40;;
46889;SDS011;32625;51.080;16.970;2023-05-07T09:55:02;5.10;;;4.53;;
46889;SDS011;32625;51.080;16.970;2023-05-07T09:57:31;4.97;;;4.47;;
46889;SDS011;32625;51.080;16.970;2023-05-07T10:00:03;6.45;;;5.18;;
46889;SDS011;32625;51.080;16.970;2023-05-07T10:02:46;7.00;;;5.13;;
46889;SDS011;32625;51.080;16.970;2023-05-07T10:05:18;6.53;;;5.35;;
46889;SDS011;32625;51.080;16.970;2023-05-07T10:07:51;6.50;;;5.50;;
46889;SDS011;32625;51.080;16.970;2023-05-07T10:10:21;7.13;;;5.60;;
46889;SDS011;32625;51.080;16.970;2023-05-07T10:12:49;8.30;;;5.90;;
46889;SDS011;32625;51.080;16.970;2023-05-07T10:15:26;8.25;;;6.40;;
46889;SDS011;32625;51.080;16.970;2023-05-07T10:17:56;5.82;;;5.07;;
46889;SDS011;32625;51.080;16.970;2023-05-07T10:20:24;5.50;;;4.10;;
46889;SDS011;32625;51.080;16.970;2023-05-07T10:22:54;5.25;;;4.75;;
46889;SDS011;32625;51.080;16.970;2023-05-07T10:25:32;5.70;;;4.60;;
46889;SDS011;32625;51.080;16.970;2023-05-07T10:28:06;5.05;;;4.55;;
46889;SDS011;32625;51.080;16.970;2023-05-07T10:33:45;4.80;;;4.23;;
46889;SDS011;32625;51.080;16.970;2023-05-07T10:36:17;5.38;;;4.35;;
46889;SDS011;32625;51.080;16.970;2023-05-07T10:38:45;6.03;;;3.75;;
46889;SDS011;32625;51.080;16.970;2023-05-07T10:41:14;5.93;;;4.13;;
46889;SDS011;32625;51.080;16.970;2023-05-07T10:43:44;5.68;;;4.10;;
46889;SDS011;32625;51.080;16.970;2023-05-07T10:46:19;4.75;;;4.28;;
46889;SDS011;32625;51.080;16.970;2023-05-07T10:49:10;5.05;;;4.00;;
46889;SDS011;32625;51.080;16.970;2023-05-07T10:55:18;5.40;;;3.65;;
46889;SDS011;32625;51.080;16.970;2023-05-07T10:58:27;5.32;;;4.03;;
46889;SDS011;32625;51.080;16.970;2023-05-07T11:01:06;4.72;;;3.72;;
46889;SDS011;32625;51.080;16.970;2023-05-07T11:04:12;4.82;;;3.90;;
46889;SDS011;32625;51.080;16.970;2023-05-07T11:07:26;4.65;;;3.80;;
46889;SDS011;32625;51.080;16.970;2023-05-07T11:10:01;4.97;;;3.95;;
46889;SDS011;32625;51.080;16.970;2023-05-07T11:12:46;3.75;;;3.38;;
46889;SDS011;32625;51.080;16.970;2023-05-07T11:15:34;3.97;;;3.17;;
46889;SDS011;32625;51.080;16.970;2023-05-07T11:18:10;4.93;;;3.58;;
46889;SDS011;32625;51.080;16.970;2023-05-07T11:20:52;4.70;;;3.67;;
46889;SDS011;32625;51.080;16.970;2023-05-07T11:26:25;4.57;;;3.95;;
46889;SDS011;32625;51.080;16.970;2023-05-07T11:28:53;5.25;;;3.30;;
46889;SDS011;32625;51.080;16.970;2023-05-07T11:31:24;4.75;;;3.83;;
46889;SDS011;32625;51.080;16.970;2023-05-07T11:33:55;7.22;;;3.63;;
46889;SDS011;32625;51.080;16.970;2023-05-07T11:36:23;4.72;;;3.58;;
46889;SDS011;32625;51.080;16.970;2023-05-07T11:38:54;4.50;;;3.80;;
46889;SDS011;32625;51.080;16.970;2023-05-07T11:41:22;6.70;;;3.90;;
46889;SDS011;32625;51.080;16.970;2023-05-07T11:43:59;4.82;;;3.60;;
46889;SDS011;32625;51.080;16.970;2023-05-07T11:46:27;4.13;;;3.72;;
46889;SDS011;32625;51.080;16.970;2023-05-07T11:48:55;5.35;;;4.22;;
46889;SDS011;32625;51.080;16.970;2023-05-07T11:51:23;5.95;;;4.15;;
46889;SDS011;32625;51.080;16.970;2023-05-07T11:53:52;4.70;;;3.97;;
46889;SDS011;32625;51.080;16.970;2023-05-07T11:56:20;5.13;;;4.05;;
46889;SDS011;32625;51.080;16.970;2023-05-07T11:58:47;4.40;;;3.33;;
46889;SDS011;32625;51.080;16.970;2023-05-07T12:01:14;4.47;;;3.63;;
46889;SDS011;32625;51.080;16.970;2023-05-07T12:03:43;6.93;;;3.67;;
46889;SDS011;32625;51.080;16.970;2023-05-07T12:06:16;3.58;;;3.28;;
46889;SDS011;32625;51.080;16.970;2023-05-07T12:08:44;4.45;;;3.47;;
46889;SDS011;32625;51.080;16.970;2023-05-07T12:11:14;4.10;;;3.40;;
46889;SDS011;32625;51.080;16.970;2023-05-07T12:13:48;4.43;;;3.33;;
46889;SDS011;32625;51.080;16.970;2023-05-07T12:16:15;5.70;;;3.50;;
46889;SDS011;32625;51.080;16.970;2023-05-07T12:18:42;5.18;;;3.88;;
46889;SDS011;32625;51.080;16.970;2023-05-07T12:21:10;6.82;;;3.75;;
46889;SDS011;32625;51.080;16.970;2023-05-07T12:23:39;4.68;;;3.33;;
46889;SDS011;32625;51.080;16.970;2023-05-07T12:26:06;3.80;;;3.42;;
46889;SDS011;32625;51.080;16.970;2023-05-07T12:28:37;3.60;;;3.30;;
46889;SDS011;32625;51.080;16.970;2023-05-07T12:31:05;5.45;;;3.42;;
46889;SDS011;32625;51.080;16.970;2023-05-07T12:33:34;3.85;;;3.30;;
46889;SDS011;32625;51.080;16.970;2023-05-07T12:36:03;4.03;;;3.50;;
46889;SDS011;32625;51.080;16.970;2023-05-07T12:38:36;4.32;;;3.42;;
46889;SDS011;32625;51.080;16.970;2023-05-07T12:41:05;6.20;;;3.35;;
46889;SDS011;32625;51.080;16.970;2023-05-07T12:43:33;6.05;;;3.30;;
46889;SDS011;32625;51.080;16.970;2023-05-07T12:46:02;3.30;;;3.00;;
46889;SDS011;32625;51.080;16.970;2023-05-07T12:48:31;5.10;;;3.90;;
46889;SDS011;32625;51.080;16.970;2023-05-07T12:51:01;6.07;;;4.03;;
46889;SDS011;32625;51.080;16.970;2023-05-07T12:53:29;5.70;;;4.20;;
46889;SDS011;32625;51.080;16.970;2023-05-07T12:55:58;6.25;;;4.28;;
46889;SDS011;32625;51.080;16.970;2023-05-07T12:58:27;6.20;;;3.97;;
46889;SDS011;32625;51.080;16.970;2023-05-07T13:00:57;4.95;;;4.38;;
46889;SDS011;32625;51.080;16.970;2023-05-07T13:05:58;6.00;;;3.65;;
46889;SDS011;32625;51.080;16.970;2023-05-07T13:08:28;4.25;;;3.47;;
46889;SDS011;32625;51.080;16.970;2023-05-07T13:11:00;4.45;;;3.50;;
46889;SDS011;32625;51.080;16.970;2023-05-07T13:13:30;5.03;;;3.17;;
46889;SDS011;32625;51.080;16.970;2023-05-07T13:15:59;5.15;;;4.30;;
46889;SDS011;32625;51.080;16.970;2023-05-07T13:18:27;8.23;;;4.40;;
46889;SDS011;32625;51.080;16.970;2023-05-07T13:20:56;4.45;;;3.90;;
46889;SDS011;32625;51.080;16.970;2023-05-07T13:23:25;5.25;;;3.80;;
46889;SDS011;32625;51.080;16.970;2023-05-07T13:25:52;6.32;;;4.47;;
46889;SDS011;32625;51.080;16.970;2023-05-07T13:28:20;4.97;;;4.32;;
46889;SDS011;32625;51.080;16.970;2023-05-07T13:30:48;4.72;;;4.00;;
46889;SDS011;32625;51.080;16.970;2023-05-07T13:33:15;4.90;;;4.20;;
46889;SDS011;32625;51.080;16.970;2023-05-07T13:35:42;8.43;;;4.47;;
46889;SDS011;32625;51.080;16.970;2023-05-07T13:38:10;5.13;;;4.20;;
46889;SDS011;32625;51.080;16.970;2023-05-07T13:40:37;4.63;;;3.92;;
46889;SDS011;32625;51.080;16.970;2023-05-07T13:43:05;5.65;;;3.90;;
46889;SDS011;32625;51.080;16.970;2023-05-07T13:45:32;8.18;;;4.20;;
46889;SDS011;32625;51.080;16.970;2023-05-07T13:48:00;5.60;;;4.40;;
46889;SDS011;32625;51.080;16.970;2023-05-07T13:50:27;6.68;;;4.30;;
46889;SDS011;32625;51.080;16.970;2023-05-07T13:52:56;6.43;;;3.92;;
46889;SDS011;32625;51.080;16.970;2023-05-07T13:55:24;4.68;;;4.05;;
46889;SDS011;32625;51.080;16.970;2023-05-07T13:57:56;4.22;;;3.83;;
46889;SDS011;32625;51.080;16.970;2023-05-07T14:00:25;5.25;;;3.85;;
46889;SDS011;32625;51.080;16.970;2023-05-07T14:02:54;5.18;;;3.85;;
46889;SDS011;32625;51.080;16.970;2023-05-07T14:05:22;4.80;;;3.60;;
46889;SDS011;32625;51.080;16.970;2023-05-07T14:07:53;4.53;;;3.70;;
46889;SDS011;32625;51.080;16.970;2023-05-07T14:10:23;3.83;;;3.38;;
46889;SDS011;32625;51.080;16.970;2023-05-07T14:12:51;5.18;;;4.22;;
46889;SDS011;32625;51.080;16.970;2023-05-07T14:15:19;8.55;;;3.67;;
46889;SDS011;32625;51.080;16.970;2023-05-07T14:17:49;4.95;;;4.28;;
46889;SDS011;32625;51.080;16.970;2023-05-07T14:20:16;5.07;;;4.38;;
46889;SDS011;32625;51.080;16.970;2023-05-07T14:22:43;7.38;;;4.32;;
46889;SDS011;32625;51.080;16.970;2023-05-07T14:28:57;6.30;;;3.90;;
46889;SDS011;32625;51.080;16.970;2023-05-07T14:43:36;5.03;;;4.05;;
46889;SDS011;32625;51.080;16.970;2023-05-07T14:46:03;4.78;;;3.33;;
46889;SDS011;32625;51.080;16.970;2023-05-07T14:52:59;4.85;;;4.07;;
46889;SDS011;32625;51.080;16.970;2023-05-07T14:55:26;4.70;;;3.20;;
46889;SDS011;32625;51.080;16.970;2023-05-07T14:57:53;6.07;;;4.03;;
46889;SDS011;32625;51.080;16.970;2023-05-07T15:00:22;4.45;;;3.70;;
46889;SDS011;32625;51.080;16.970;2023-05-07T15:02:49;10.15;;;4.15;;
46889;SDS011;32625;51.080;16.970;2023-05-07T15:05:16;9.68;;;3.95;;
46889;SDS011;32625;51.080;16.970;2023-05-07T15:07:45;4.45;;;3.90;;
46889;SDS011;32625;51.080;16.970;2023-05-07T15:10:12;5.22;;;4.10;;
46889;SDS011;32625;51.080;16.970;2023-05-07T15:30:24;7.90;;;3.65;;
46889;SDS011;32625;51.080;16.970;2023-05-07T15:32:52;4.95;;;4.05;;
46889;SDS011;32625;51.080;16.970;2023-05-07T15:44:20;4.75;;;3.83;;
46889;SDS011;32625;51.080;16.970;2023-05-07T15:46:47;7.97;;;4.20;;
46889;SDS011;32625;51.080;16.970;2023-05-07T15:49:14;5.47;;;4.10;;
46889;SDS011;32625;51.080;16.970;2023-05-07T16:03:15;6.72;;;4.68;;